sensor_id;sensor_type;location;lat;lon;timestamp;pressure;altitude;pressure_sealevel;temperature;humidity
51829;BME280;37881;48.024;8.774;2023-01-13T00:01:17;93750.72;;;6.82;88.51
51829;BME280;37881;48.024;8.774;2023-01-13T00:03:44;93741.75;;;6.85;88.80
51829;BME280;37881;48.024;8.774;2023-01-13T00:06:14;93727.75;;;6.79;89.25
51829;BME280;37881;48.024;8.774;2023-01-13T00:08:41;93732.81;;;6.77;89.17
51829;BME280;37881;48.024;8.774;2023-01-13T00:11:08;93725.00;;;6.83;89.12
51829;BME280;37881;48.024;8.774;2023-01-13T00:13:36;93722.28;;;6.79;90.11
51829;BME280;37881;48.024;8.774;2023-01-13T00:16:05;93709.84;;;6.75;89.74
51829;BME280;37881;48.024;8.774;2023-01-13T00:18:33;93701.28;;;6.69;90.50
51829;BME280;37881;48.024;8.774;2023-01-13T00:21:05;93719.25;;;6.63;91.80
51829;BME280;37881;48.024;8.774;2023-01-13T00:23:33;93705.59;;;6.63;91.43
51829;BME280;37881;48.024;8.774;2023-01-13T00:26:03;93704.41;;;6.68;91.63
51829;BME280;37881;48.024;8.774;2023-01-13T00:28:30;93695.47;;;6.67;91.47
51829;BME280;37881;48.024;8.774;2023-01-13T00:31:12;93694.31;;;6.65;91.80
51829;BME280;37881;48.024;8.774;2023-01-13T00:33:39;93705.59;;;6.67;91.71
51829;BME280;37881;48.024;8.774;2023-01-13T00:36:07;93702.88;;;6.70;91.88
51829;BME280;37881;48.024;8.774;2023-01-13T00:38:36;93701.66;;;6.75;91.39
51829;BME280;37881;48.024;8.774;2023-01-13T00:41:06;93700.09;;;6.74;91.53
51829;BME280;37881;48.024;8.774;2023-01-13T00:43:34;93684.13;;;6.76;90.63
51829;BME280;37881;48.024;8.774;2023-01-13T00:46:04;93682.94;;;6.80;90.16
51829;BME280;37881;48.024;8.774;2023-01-13T00:48:32;93677.13;;;6.78;90.39
51829;BME280;37881;48.024;8.774;2023-01-13T00:51:01;93685.66;;;6.84;90.13
51829;BME280;37881;48.024;8.774;2023-01-13T00:53:33;93687.97;;;6.86;89.93
51829;BME280;37881;48.024;8.774;2023-01-13T00:56:06;93675.91;;;6.87;90.21
51829;BME280;37881;48.024;8.774;2023-01-13T00:58:33;93686.41;;;6.88;90.53
51829;BME280;37881;48.024;8.774;2023-01-13T01:01:06;93678.63;;;6.90;90.18
51829;BME280;37881;48.024;8.774;2023-01-13T01:03:34;93682.06;;;6.98;89.69
51829;BME280;37881;48.024;8.774;2023-01-13T01:06:07;93667.31;;;6.88;89.33
51829;BME280;37881;48.024;8.774;2023-01-13T01:08:34;93670.38;;;6.94;90.07
51829;BME280;37881;48.024;8.774;2023-01-13T01:11:22;93687.56;;;6.91;89.29
51829;BME280;37881;48.024;8.774;2023-01-13T01:13:50;93675.06;;;6.93;89.15
51829;BME280;37881;48.024;8.774;2023-01-13T01:16:21;93667.31;;;6.88;90.19
51829;BME280;37881;48.024;8.774;2023-01-13T01:18:50;93666.13;;;6.89;90.21
51829;BME280;37881;48.024;8.774;2023-01-13T01:21:17;93672.78;;;6.85;90.14
51829;BME280;37881;48.024;8.774;2023-01-13T01:23:44;93673.16;;;6.87;90.07
51829;BME280;37881;48.024;8.774;2023-01-13T01:26:15;93674.69;;;6.91;89.41
51829;BME280;37881;48.024;8.774;2023-01-13T01:28:44;93689.09;;;6.92;89.60
51829;BME280;37881;48.024;8.774;2023-01-13T01:31:14;93681.72;;;6.92;89.05
51829;BME280;37881;48.024;8.774;2023-01-13T01:33:41;93670.81;;;6.92;89.23
51829;BME280;37881;48.024;8.774;2023-01-13T01:36:10;93676.59;;;6.98;88.68
51829;BME280;37881;48.024;8.774;2023-01-13T01:38:37;93680.13;;;6.95;88.97
51829;BME280;37881;48.024;8.774;2023-01-13T01:41:04;93686.38;;;6.95;88.18
51829;BME280;37881;48.024;8.774;2023-01-13T01:43:48;93678.53;;;7.01;88.66
51829;BME280;37881;48.024;8.774;2023-01-13T01:46:42;93669.16;;;7.02;88.06
51829;BME280;37881;48.024;8.774;2023-01-13T01:55:02;93663.00;;;6.91;88.58
51829;BME280;37881;48.024;8.774;2023-01-13T02:00:18;93660.69;;;6.89;88.41
51829;BME280;37881;48.024;8.774;2023-01-13T02:02:47;93662.63;;;6.89;88.42
51829;BME280;37881;48.024;8.774;2023-01-13T02:05:15;93647.06;;;6.86;88.91
51829;BME280;37881;48.024;8.774;2023-01-13T02:07:45;93655.66;;;6.84;88.71
51829;BME280;37881;48.024;8.774;2023-01-13T02:10:16;93647.06;;;6.82;89.26
51829;BME280;37881;48.024;8.774;2023-01-13T02:12:46;93647.13;;;6.75;89.29
51829;BME280;37881;48.024;8.774;2023-01-13T02:15:14;93652.97;;;6.77;89.29
51829;BME280;37881;48.024;8.774;2023-01-13T02:32:25;93636.31;;;6.53;92.43
51829;BME280;37881;48.024;8.774;2023-01-13T02:35:10;93621.91;;;6.49;93.58
51829;BME280;37881;48.024;8.774;2023-01-13T02:37:41;93635.94;;;6.48;94.26
51829;BME280;37881;48.024;8.774;2023-01-13T02:40:18;93635.16;;;6.47;95.02
51829;BME280;37881;48.024;8.774;2023-01-13T02:48:28;93626.28;;;6.32;97.61
51829;BME280;37881;48.024;8.774;2023-01-13T02:51:04;93624.72;;;6.31;97.82
51829;BME280;37881;48.024;8.774;2023-01-13T02:53:35;93633.31;;;6.26;98.19
51829;BME280;37881;48.024;8.774;2023-01-13T02:56:05;93630.56;;;6.30;97.71
51829;BME280;37881;48.024;8.774;2023-01-13T02:58:35;93637.97;;;6.26;97.56
51829;BME280;37881;48.024;8.774;2023-01-13T03:01:04;93643.41;;;6.29;96.45
51829;BME280;37881;48.024;8.774;2023-01-13T03:03:30;93638.34;;;6.31;95.56
51829;BME280;37881;48.024;8.774;2023-01-13T03:11:10;93631.34;;;6.27;95.53
51829;BME280;37881;48.024;8.774;2023-01-13T03:16:27;93646.16;;;6.26;95.60
51829;BME280;37881;48.024;8.774;2023-01-13T03:21:49;93642.69;;;6.18;96.04
51829;BME280;37881;48.024;8.774;2023-01-13T03:24:21;93636.81;;;6.19;95.60
51829;BME280;37881;48.024;8.774;2023-01-13T03:27:21;93636.84;;;6.12;96.62
51829;BME280;37881;48.024;8.774;2023-01-13T03:29:56;93632.97;;;6.10;96.51
51829;BME280;37881;48.024;8.774;2023-01-13T03:32:29;93625.59;;;6.07;97.36
51829;BME280;37881;48.024;8.774;2023-01-13T03:37:32;93625.59;;;5.99;98.28
51829;BME280;37881;48.024;8.774;2023-01-13T03:40:07;93629.88;;;6.00;98.46
51829;BME280;37881;48.024;8.774;2023-01-13T03:42:36;93615.50;;;5.96;99.46
51829;BME280;37881;48.024;8.774;2023-01-13T03:45:12;93622.09;;;5.95;99.67
51829;BME280;37881;48.024;8.774;2023-01-13T03:47:45;93607.72;;;5.95;99.85
51829;BME280;37881;48.024;8.774;2023-01-13T03:50:17;93599.50;;;5.91;100.00
51829;BME280;37881;48.024;8.774;2023-01-13T03:52:49;93613.94;;;5.88;100.00
51829;BME280;37881;48.024;8.774;2023-01-13T03:55:22;93602.66;;;5.86;100.00
51829;BME280;37881;48.024;8.774;2023-01-13T03:57:57;93628.31;;;5.89;100.00
51829;BME280;37881;48.024;8.774;2023-01-13T04:00:34;93597.59;;;5.85;100.00
51829;BME280;37881;48.024;8.774;2023-01-13T04:03:04;93592.56;;;5.79;100.00
51829;BME280;37881;48.024;8.774;2023-01-13T04:05:36;93593.72;;;5.78;100.00
51829;BME280;37881;48.024;8.774;2023-01-13T04:08:19;93607.72;;;5.77;100.00
51829;BME280;37881;48.024;8.774;2023-01-13T04:11:10;93602.28;;;5.77;100.00
51829;BME280;37881;48.024;8.774;2023-01-13T04:13:40;93600.34;;;5.70;100.00
51829;BME280;37881;48.024;8.774;2023-01-13T04:16:09;93590.22;;;5.71;100.00
51829;BME280;37881;48.024;8.774;2023-01-13T04:18:38;93596.88;;;5.70;100.00
51829;BME280;37881;48.024;8.774;2023-01-13T04:21:05;93600.75;;;5.72;100.00
51829;BME280;37881;48.024;8.774;2023-01-13T04:23:33;93596.44;;;5.71;100.00
51829;BME280;37881;48.024;8.774;2023-01-13T04:25:59;93589.06;;;5.72;100.00
51829;BME280;37881;48.024;8.774;2023-01-13T04:28:26;93586.75;;;5.70;100.00
51829;BME280;37881;48.024;8.774;2023-01-13T04:30:53;93584.41;;;5.69;100.00
51829;BME280;37881;48.024;8.774;2023-01-13T04:33:20;93601.13;;;5.67;100.00
51829;BME280;37881;48.024;8.774;2023-01-13T04:35:47;93586.34;;;5.65;100.00
51829;BME280;37881;48.024;8.774;2023-01-13T04:38:19;93575.47;;;5.65;100.00
51829;BME280;37881;48.024;8.774;2023-01-13T04:40:46;93577.81;;;5.63;100.00
51829;BME280;37881;48.024;8.774;2023-01-13T04:43:14;93590.66;;;5.66;100.00
51829;BME280;37881;48.024;8.774;2023-01-13T04:45:41;93583.63;;;5.68;100.00
51829;BME280;37881;48.024;8.774;2023-01-13T04:48:08;93595.28;;;5.65;100.00
51829;BME280;37881;48.024;8.774;2023-01-13T04:50:35;93589.09;;;5.65;100.00
51829;BME280;37881;48.024;8.774;2023-01-13T04:53:02;93590.63;;;5.73;100.00
51829;BME280;37881;48.024;8.774;2023-01-13T04:55:29;93589.06;;;5.72;100.00
51829;BME280;37881;48.024;8.774;2023-01-13T04:58:04;93567.31;;;5.72;100.00
51829;BME280;37881;48.024;8.774;2023-01-13T05:00:31;93584.03;;;5.74;100.00
51829;BME280;37881;48.024;8.774;2023-01-13T05:02:58;93582.06;;;5.74;100.00
51829;BME280;37881;48.024;8.774;2023-01-13T05:05:26;93587.13;;;5.72;100.00
51829;BME280;37881;48.024;8.774;2023-01-13T05:07:53;93590.22;;;5.71;100.00
51829;BME280;37881;48.024;8.774;2023-01-13T05:10:20;93582.44;;;5.69;100.00
51829;BME280;37881;48.024;8.774;2023-01-13T05:12:49;93578.56;;;5.70;100.00
51829;BME280;37881;48.024;8.774;2023-01-13T05:15:34;93577.38;;;5.71;100.00
51829;BME280;37881;48.024;8.774;2023-01-13T05:18:20;93582.88;;;5.68;100.00
51829;BME280;37881;48.024;8.774;2023-01-13T05:20:47;93571.97;;;5.64;100.00
51829;BME280;37881;48.024;8.774;2023-01-13T05:23:14;93574.31;;;5.66;100.00
51829;BME280;37881;48.024;8.774;2023-01-13T05:25:59;93581.28;;;5.70;100.00
51829;BME280;37881;48.024;8.774;2023-01-13T05:28:30;93573.94;;;5.64;100.00
51829;BME280;37881;48.024;8.774;2023-01-13T05:30:58;93573.91;;;5.67;100.00
51829;BME280;37881;48.024;8.774;2023-01-13T05:33:25;93577.03;;;5.66;100.00
51829;BME280;37881;48.024;8.774;2023-01-13T05:35:51;93575.84;;;5.63;100.00
51829;BME280;37881;48.024;8.774;2023-01-13T05:38:18;93571.59;;;5.58;100.00
51829;BME280;37881;48.024;8.774;2023-01-13T05:40:45;93575.88;;;5.56;100.00
51829;BME280;37881;48.024;8.774;2023-01-13T05:43:30;93584.06;;;5.59;100.00
51829;BME280;37881;48.024;8.774;2023-01-13T05:46:00;93585.97;;;5.59;100.00
51829;BME280;37881;48.024;8.774;2023-01-13T05:48:33;93585.97;;;5.59;100.00
51829;BME280;37881;48.024;8.774;2023-01-13T05:51:01;93579.75;;;5.58;100.00
51829;BME280;37881;48.024;8.774;2023-01-13T05:53:30;93582.88;;;5.57;100.00
51829;BME280;37881;48.024;8.774;2023-01-13T05:55:57;93579.00;;;5.58;100.00
51829;BME280;37881;48.024;8.774;2023-01-13T05:58:26;93583.66;;;5.57;100.00
51829;BME280;37881;48.024;8.774;2023-01-13T06:00:58;93575.50;;;5.54;100.00
51829;BME280;37881;48.024;8.774;2023-01-13T06:03:25;93589.50;;;5.52;100.00
51829;BME280;37881;48.024;8.774;2023-01-13T06:05:52;93596.09;;;5.51;100.00
51829;BME280;37881;48.024;8.774;2023-01-13T06:08:24;93594.56;;;5.47;100.00
51829;BME280;37881;48.024;8.774;2023-01-13T06:10:51;93592.97;;;5.49;100.00
51829;BME280;37881;48.024;8.774;2023-01-13T06:13:18;93591.06;;;5.43;100.00
51829;BME280;37881;48.024;8.774;2023-01-13T06:15:45;93592.63;;;5.40;100.00
51829;BME280;37881;48.024;8.774;2023-01-13T06:18:11;93587.19;;;5.36;100.00
51829;BME280;37881;48.024;8.774;2023-01-13T06:20:38;93583.31;;;5.37;100.00
51829;BME280;37881;48.024;8.774;2023-01-13T06:23:08;93575.53;;;5.32;100.00
51829;BME280;37881;48.024;8.774;2023-01-13T06:28:39;93574.34;;;5.23;100.00
51829;BME280;37881;48.024;8.774;2023-01-13T06:31:07;93566.22;;;5.15;100.00
51829;BME280;37881;48.024;8.774;2023-01-13T06:33:43;93565.06;;;5.09;100.00
51829;BME280;37881;48.024;8.774;2023-01-13T06:36:18;93563.88;;;5.07;100.00
51829;BME280;37881;48.024;8.774;2023-01-13T06:38:50;93564.28;;;5.05;100.00
51829;BME280;37881;48.024;8.774;2023-01-13T06:41:20;93560.78;;;4.97;100.00
51829;BME280;37881;48.024;8.774;2023-01-13T06:44:09;93573.59;;;5.04;100.00
51829;BME280;37881;48.024;8.774;2023-01-13T06:46:36;93571.25;;;5.06;100.00
51829;BME280;37881;48.024;8.774;2023-01-13T06:49:03;93581.34;;;4.95;100.00
51829;BME280;37881;48.024;8.774;2023-01-13T06:51:30;93572.41;;;4.98;100.00
51829;BME280;37881;48.024;8.774;2023-01-13T06:53:56;93572.44;;;5.02;100.00
51829;BME280;37881;48.024;8.774;2023-01-13T06:56:23;93581.72;;;4.97;100.00
51829;BME280;37881;48.024;8.774;2023-01-13T06:58:50;93579.00;;;4.97;100.00
51829;BME280;37881;48.024;8.774;2023-01-13T07:01:17;93582.91;;;4.92;100.00
51829;BME280;37881;48.024;8.774;2023-01-13T07:03:43;93572.41;;;4.91;100.00
51829;BME280;37881;48.024;8.774;2023-01-13T07:06:10;93576.31;;;4.93;100.00
51829;BME280;37881;48.024;8.774;2023-01-13T07:08:37;93575.50;;;4.93;100.00
51829;BME280;37881;48.024;8.774;2023-01-13T07:11:04;93573.97;;;4.92;100.00
51829;BME280;37881;48.024;8.774;2023-01-13T07:13:31;93580.19;;;4.85;100.00
51829;BME280;37881;48.024;8.774;2023-01-13T07:16:18;93583.28;;;4.84;100.00
51829;BME280;37881;48.024;8.774;2023-01-13T07:18:45;93582.53;;;4.83;100.00
51829;BME280;37881;48.024;8.774;2023-01-13T07:21:11;93589.50;;;4.80;100.00
51829;BME280;37881;48.024;8.774;2023-01-13T07:23:46;93589.50;;;4.80;100.00
51829;BME280;37881;48.024;8.774;2023-01-13T07:26:14;93593.41;;;4.83;100.00
51829;BME280;37881;48.024;8.774;2023-01-13T07:28:41;93602.34;;;4.87;100.00
51829;BME280;37881;48.024;8.774;2023-01-13T07:31:18;93599.63;;;4.87;100.00
51829;BME280;37881;48.024;8.774;2023-01-13T07:33:48;93586.03;;;4.87;100.00
51829;BME280;37881;48.024;8.774;2023-01-13T07:36:15;93582.91;;;4.89;100.00
51829;BME280;37881;48.024;8.774;2023-01-13T07:38:42;93590.66;;;4.90;100.00
51829;BME280;37881;48.024;8.774;2023-01-13T07:41:13;93583.69;;;4.86;100.00
51829;BME280;37881;48.024;8.774;2023-01-13T07:43:58;93586.78;;;4.88;100.00
51829;BME280;37881;48.024;8.774;2023-01-13T07:46:26;93586.38;;;4.93;100.00
51829;BME280;37881;48.024;8.774;2023-01-13T07:48:52;93589.88;;;4.97;100.00
51829;BME280;37881;48.024;8.774;2023-01-13T07:51:19;93589.13;;;5.00;100.00
51829;BME280;37881;48.024;8.774;2023-01-13T07:53:46;93594.56;;;5.04;100.00
51829;BME280;37881;48.024;8.774;2023-01-13T07:56:12;93596.13;;;5.05;100.00
51829;BME280;37881;48.024;8.774;2023-01-13T07:58:39;93585.63;;;4.99;100.00
51829;BME280;37881;48.024;8.774;2023-01-13T08:01:08;93604.28;;;5.01;100.00
51829;BME280;37881;48.024;8.774;2023-01-13T08:03:35;93598.84;;;5.05;100.00
51829;BME280;37881;48.024;8.774;2023-01-13T08:06:02;93602.34;;;5.12;100.00
51829;BME280;37881;48.024;8.774;2023-01-13T08:08:30;93604.28;;;5.15;100.00
51829;BME280;37881;48.024;8.774;2023-01-13T08:11:00;93606.63;;;5.24;100.00
51829;BME280;37881;48.024;8.774;2023-01-13T08:13:27;93605.47;;;5.25;100.00
51829;BME280;37881;48.024;8.774;2023-01-13T08:16:00;93596.50;;;5.32;100.00
51829;BME280;37881;48.024;8.774;2023-01-13T08:18:27;93593.41;;;5.40;100.00
51829;BME280;37881;48.024;8.774;2023-01-13T08:20:54;93596.50;;;5.39;100.00
51829;BME280;37881;48.024;8.774;2023-01-13T08:23:21;93605.06;;;5.34;100.00
51829;BME280;37881;48.024;8.774;2023-01-13T08:25:48;93608.94;;;5.33;100.00
51829;BME280;37881;48.024;8.774;2023-01-13T08:28:16;93605.84;;;5.31;100.00
51829;BME280;37881;48.024;8.774;2023-01-13T08:30:43;93616.34;;;5.32;100.00
51829;BME280;37881;48.024;8.774;2023-01-13T08:33:11;93621.41;;;5.37;100.00
51829;BME280;37881;48.024;8.774;2023-01-13T08:35:39;93619.06;;;5.36;100.00
51829;BME280;37881;48.024;8.774;2023-01-13T08:38:06;93619.44;;;5.31;100.00
51829;BME280;37881;48.024;8.774;2023-01-13T08:40:33;93634.22;;;5.44;100.00
51829;BME280;37881;48.024;8.774;2023-01-13T08:43:01;93638.50;;;5.38;100.00
51829;BME280;37881;48.024;8.774;2023-01-13T08:45:28;93642.38;;;5.44;100.00
51829;BME280;37881;48.024;8.774;2023-01-13T08:47:54;93651.31;;;5.45;100.00
51829;BME280;37881;48.024;8.774;2023-01-13T08:50:21;93646.66;;;5.59;100.00
51829;BME280;37881;48.024;8.774;2023-01-13T08:52:48;93648.97;;;5.47;100.00
51829;BME280;37881;48.024;8.774;2023-01-13T08:55:15;93639.66;;;5.44;100.00
51829;BME280;37881;48.024;8.774;2023-01-13T08:57:41;93644.34;;;5.44;100.00
51829;BME280;37881;48.024;8.774;2023-01-13T09:00:09;93659.09;;;5.50;100.00
51829;BME280;37881;48.024;8.774;2023-01-13T09:02:36;93654.03;;;5.45;100.00
51829;BME280;37881;48.024;8.774;2023-01-13T09:05:08;93660.28;;;5.42;100.00
51829;BME280;37881;48.024;8.774;2023-01-13T09:07:36;93662.59;;;5.43;100.00
51829;BME280;37881;48.024;8.774;2023-01-13T09:10:05;93651.31;;;5.55;100.00
51829;BME280;37881;48.024;8.774;2023-01-13T09:12:32;93648.22;;;5.50;100.00
51829;BME280;37881;48.024;8.774;2023-01-13T09:15:18;93653.25;;;5.55;100.00
51829;BME280;37881;48.024;8.774;2023-01-13T09:17:45;93663.75;;;5.64;100.00
51829;BME280;37881;48.024;8.774;2023-01-13T09:20:13;93660.66;;;5.62;100.00
51829;BME280;37881;48.024;8.774;2023-01-13T09:22:40;93667.25;;;5.68;100.00
51829;BME280;37881;48.024;8.774;2023-01-13T09:25:07;93654.81;;;5.63;100.00
51829;BME280;37881;48.024;8.774;2023-01-13T09:27:34;93671.13;;;5.70;100.00
51829;BME280;37881;48.024;8.774;2023-01-13T09:30:01;93673.47;;;5.61;100.00
51829;BME280;37881;48.024;8.774;2023-01-13T09:32:28;93671.53;;;5.69;100.00
51829;BME280;37881;48.024;8.774;2023-01-13T09:34:54;93668.03;;;5.61;100.00
51829;BME280;37881;48.024;8.774;2023-01-13T09:37:32;93673.09;;;5.59;100.00
51829;BME280;37881;48.024;8.774;2023-01-13T09:40:00;93680.47;;;5.62;100.00
51829;BME280;37881;48.024;8.774;2023-01-13T09:43:28;93688.28;;;5.64;100.00
51829;BME280;37881;48.024;8.774;2023-01-13T09:46:00;93676.56;;;5.63;100.00
51829;BME280;37881;48.024;8.774;2023-01-13T09:48:35;93678.53;;;5.70;100.00
51829;BME280;37881;48.024;8.774;2023-01-13T09:51:34;93672.69;;;5.82;100.00
51829;BME280;37881;48.024;8.774;2023-01-13T09:56:45;93681.63;;;5.86;100.00
51829;BME280;37881;48.024;8.774;2023-01-13T09:59:13;93676.97;;;6.01;100.00
51829;BME280;37881;48.024;8.774;2023-01-13T10:01:55;93673.44;;;6.18;100.00
51829;BME280;37881;48.024;8.774;2023-01-13T10:04:25;93690.06;;;6.60;100.00
51829;BME280;37881;48.024;8.774;2023-01-13T10:06:56;93663.72;;;7.02;100.00
51829;BME280;37881;48.024;8.774;2023-01-13T10:09:33;93681.22;;;7.08;100.00
51829;BME280;37881;48.024;8.774;2023-01-13T10:12:14;93667.84;;;7.28;100.00
51829;BME280;37881;48.024;8.774;2023-01-13T10:15:00;93664.47;;;7.06;100.00
51829;BME280;37881;48.024;8.774;2023-01-13T10:17:40;93656.13;;;7.80;100.00
51829;BME280;37881;48.024;8.774;2023-01-13T10:20:21;93667.09;;;8.18;100.00
51829;BME280;37881;48.024;8.774;2023-01-13T10:25:43;93661.97;;;8.92;100.00
51829;BME280;37881;48.024;8.774;2023-01-13T10:28:15;93680.94;;;8.00;100.00
51829;BME280;37881;48.024;8.774;2023-01-13T10:30:46;93659.97;;;7.86;100.00
51829;BME280;37881;48.024;8.774;2023-01-13T10:33:18;93667.28;;;7.55;100.00
51829;BME280;37881;48.024;8.774;2023-01-13T10:38:28;93674.09;;;7.29;100.00
51829;BME280;37881;48.024;8.774;2023-01-13T10:41:21;93664.03;;;7.15;100.00
51829;BME280;37881;48.024;8.774;2023-01-13T10:46:19;93679.13;;;7.34;100.00
51829;BME280;37881;48.024;8.774;2023-01-13T10:48:57;93684.53;;;7.41;100.00
51829;BME280;37881;48.024;8.774;2023-01-13T10:51:45;93672.00;;;7.47;100.00
51829;BME280;37881;48.024;8.774;2023-01-13T10:56:41;93677.09;;;7.45;100.00
51829;BME280;37881;48.024;8.774;2023-01-13T10:59:21;93675.22;;;7.35;100.00
51829;BME280;37881;48.024;8.774;2023-01-13T11:02:15;93672.06;;;7.40;100.00
51829;BME280;37881;48.024;8.774;2023-01-13T11:04:56;93691.09;;;7.51;100.00
51829;BME280;37881;48.024;8.774;2023-01-13T11:07:44;93686.41;;;7.55;100.00
51829;BME280;37881;48.024;8.774;2023-01-13T11:10:21;93686.16;;;7.35;98.63
51829;BME280;37881;48.024;8.774;2023-01-13T11:13:01;93683.06;;;7.82;95.91
51829;BME280;37881;48.024;8.774;2023-01-13T11:18:18;93695.31;;;7.63;91.15
51829;BME280;37881;48.024;8.774;2023-01-13T11:20:49;93683.81;;;8.96;87.76
51829;BME280;37881;48.024;8.774;2023-01-13T11:23:36;93658.72;;;9.01;82.60
51829;BME280;37881;48.024;8.774;2023-01-13T11:26:15;93670.16;;;9.23;80.04
51829;BME280;37881;48.024;8.774;2023-01-13T11:28:56;93672.41;;;10.90;71.87
51829;BME280;37881;48.024;8.774;2023-01-13T11:31:33;93679.81;;;11.66;66.92
51829;BME280;37881;48.024;8.774;2023-01-13T11:36:46;93667.09;;;12.96;60.62
51829;BME280;37881;48.024;8.774;2023-01-13T11:39:48;93671.97;;;14.20;56.94
51829;BME280;37881;48.024;8.774;2023-01-13T11:42:42;93669.28;;;13.01;57.34
51829;BME280;37881;48.024;8.774;2023-01-13T11:47:44;93672.28;;;13.07;59.31
51829;BME280;37881;48.024;8.774;2023-01-13T11:50:21;93685.38;;;11.46;61.77
51829;BME280;37881;48.024;8.774;2023-01-13T11:53:05;93666.50;;;10.91;63.26
51829;BME280;37881;48.024;8.774;2023-01-13T12:03:45;93665.38;;;15.41;47.08
51829;BME280;37881;48.024;8.774;2023-01-13T12:06:23;93664.66;;;14.96;47.67
51829;BME280;37881;48.024;8.774;2023-01-13T12:08:59;93674.75;;;16.06;44.94
51829;BME280;37881;48.024;8.774;2023-01-13T12:14:42;93680.63;;;13.58;50.95
51829;BME280;37881;48.024;8.774;2023-01-13T12:17:41;93698.84;;;12.09;52.53
51829;BME280;37881;48.024;8.774;2023-01-13T12:23:00;93696.75;;;11.28;55.58
51829;BME280;37881;48.024;8.774;2023-01-13T12:28:07;93706.94;;;9.76;61.60
51829;BME280;37881;48.024;8.774;2023-01-13T12:30:41;93715.38;;;8.73;65.32
51829;BME280;37881;48.024;8.774;2023-01-13T12:38:56;93761.41;;;8.37;73.32
51829;BME280;37881;48.024;8.774;2023-01-13T12:41:40;93767.06;;;8.19;77.84
51829;BME280;37881;48.024;8.774;2023-01-13T12:44:27;93768.44;;;7.30;84.54
51829;BME280;37881;48.024;8.774;2023-01-13T12:46:56;93750.47;;;7.95;81.09
51829;BME280;37881;48.024;8.774;2023-01-13T12:49:32;93749.88;;;7.70;80.06
51829;BME280;37881;48.024;8.774;2023-01-13T12:52:08;93744.13;;;8.06;79.74
51829;BME280;37881;48.024;8.774;2023-01-13T13:00:11;93736.47;;;5.67;98.62
51829;BME280;37881;48.024;8.774;2023-01-13T13:02:34;93732.50;;;6.54;94.21
51829;BME280;37881;48.024;8.774;2023-01-13T13:07:45;93737.66;;;5.84;99.74
51829;BME280;37881;48.024;8.774;2023-01-13T13:10:27;93736.09;;;5.90;100.00
51829;BME280;37881;48.024;8.774;2023-01-13T13:13:01;93738.03;;;5.71;100.00
51829;BME280;37881;48.024;8.774;2023-01-13T13:15:48;93717.81;;;5.79;100.00
51829;BME280;37881;48.024;8.774;2023-01-13T13:18:19;93717.44;;;6.10;99.48
51829;BME280;37881;48.024;8.774;2023-01-13T13:21:05;93714.69;;;6.17;97.68
51829;BME280;37881;48.024;8.774;2023-01-13T13:26:26;93707.00;;;7.00;94.17
51829;BME280;37881;48.024;8.774;2023-01-13T13:39:43;93721.19;;;6.59;97.36
51829;BME280;37881;48.024;8.774;2023-01-13T13:42:38;93729.31;;;6.73;93.53
51829;BME280;37881;48.024;8.774;2023-01-13T13:45:26;93740.81;;;7.20;88.41
51829;BME280;37881;48.024;8.774;2023-01-13T13:48:29;93740.63;;;7.53;83.27
51829;BME280;37881;48.024;8.774;2023-01-13T13:50:58;93748.41;;;7.54;78.50
51829;BME280;37881;48.024;8.774;2023-01-13T13:53:30;93743.56;;;7.80;75.24
51829;BME280;37881;48.024;8.774;2023-01-13T13:56:00;93756.91;;;7.67;74.55
51829;BME280;37881;48.024;8.774;2023-01-13T13:58:30;93767.09;;;7.63;75.58
51829;BME280;37881;48.024;8.774;2023-01-13T14:00:59;93776.97;;;7.43;74.99
51829;BME280;37881;48.024;8.774;2023-01-13T14:03:31;93772.69;;;7.34;74.47
51829;BME280;37881;48.024;8.774;2023-01-13T14:06:02;93774.03;;;7.01;76.63
51829;BME280;37881;48.024;8.774;2023-01-13T14:08:34;93803.94;;;7.26;73.80
51829;BME280;37881;48.024;8.774;2023-01-13T14:11:25;93812.28;;;6.79;71.76
51829;BME280;37881;48.024;8.774;2023-01-13T14:14:02;93822.50;;;6.50;74.44
51829;BME280;37881;48.024;8.774;2023-01-13T14:16:31;93833.78;;;6.27;77.51
51829;BME280;37881;48.024;8.774;2023-01-13T14:18:59;93821.75;;;6.14;78.29
51829;BME280;37881;48.024;8.774;2023-01-13T14:21:27;93805.75;;;6.02;80.18
51829;BME280;37881;48.024;8.774;2023-01-13T14:24:10;93816.59;;;5.73;82.88
51829;BME280;37881;48.024;8.774;2023-01-13T14:26:39;93814.66;;;5.77;84.74
51829;BME280;37881;48.024;8.774;2023-01-13T14:29:07;93826.75;;;5.76;85.86
51829;BME280;37881;48.024;8.774;2023-01-13T14:31:39;93844.22;;;5.68;86.91
51829;BME280;37881;48.024;8.774;2023-01-13T14:34:06;93852.00;;;5.66;87.48
51829;BME280;37881;48.024;8.774;2023-01-13T14:36:53;93848.06;;;5.52;88.83
51829;BME280;37881;48.024;8.774;2023-01-13T14:39:31;93853.16;;;5.57;88.92
51829;BME280;37881;48.024;8.774;2023-01-13T14:41:59;93838.28;;;5.30;90.99
51829;BME280;37881;48.024;8.774;2023-01-13T14:44:35;93849.56;;;5.32;91.05
51829;BME280;37881;48.024;8.774;2023-01-13T14:47:15;93841.84;;;5.48;90.74
51829;BME280;37881;48.024;8.774;2023-01-13T14:49:59;93850.41;;;5.61;88.67
51829;BME280;37881;48.024;8.774;2023-01-13T14:52:49;93834.84;;;5.54;89.50
51829;BME280;37881;48.024;8.774;2023-01-13T14:55:22;93851.91;;;5.30;90.01
51829;BME280;37881;48.024;8.774;2023-01-13T14:57:49;93857.72;;;5.28;89.87
51829;BME280;37881;48.024;8.774;2023-01-13T15:00:20;93866.66;;;5.25;89.58
51829;BME280;37881;48.024;8.774;2023-01-13T15:10:23;93877.94;;;5.27;88.67
51829;BME280;37881;48.024;8.774;2023-01-13T15:12:52;93870.13;;;5.22;88.77
51829;BME280;37881;48.024;8.774;2023-01-13T15:15:22;93877.09;;;5.23;89.09
51829;BME280;37881;48.024;8.774;2023-01-13T15:17:50;93876.31;;;5.15;88.91
51829;BME280;37881;48.024;8.774;2023-01-13T15:20:19;93875.53;;;5.11;89.84
51829;BME280;37881;48.024;8.774;2023-01-13T15:22:47;93877.94;;;5.27;89.43
51829;BME280;37881;48.024;8.774;2023-01-13T15:25:14;93870.19;;;5.40;88.53
51829;BME280;37881;48.024;8.774;2023-01-13T15:27:43;93884.19;;;5.38;88.54
51829;BME280;37881;48.024;8.774;2023-01-13T15:30:18;93879.53;;;5.35;88.98